createdAt,value
2023-01-13T00:00:13.085Z,966.1300
2023-01-13T00:01:15.420Z,966.1100
2023-01-13T00:02:17.893Z,966.1300
2023-01-13T00:03:20.164Z,966.1300
2023-01-13T00:04:20.331Z,966.1100
2023-01-13T00:05:22.666Z,966.1100
2023-01-13T00:06:25.037Z,966.1700
2023-01-13T00:07:27.400Z,966.1500
2023-01-13T00:09:06.394Z,966.1500
2023-01-13T00:10:08.685Z,966.1100
2023-01-13T00:11:11.013Z,966.0700
2023-01-13T00:12:13.358Z,966.0300
2023-01-13T00:13:13.600Z,965.9900
2023-01-13T00:14:15.863Z,965.9700
2023-01-13T00:15:18.232Z,965.9100
2023-01-13T00:16:20.619Z,965.9300
2023-01-13T00:17:22.974Z,965.9300
2023-01-13T00:18:23.371Z,965.8900
2023-01-13T00:19:25.602Z,965.8600
2023-01-13T00:20:27.994Z,965.8600
2023-01-13T00:21:30.350Z,965.8200
2023-01-13T00:22:32.756Z,965.7600
2023-01-13T00:23:34.001Z,965.7600
2023-01-13T00:24:34.200Z,965.7400
2023-01-13T00:25:36.578Z,965.7800
2023-01-13T00:27:37.059Z,965.8000
2023-01-13T00:28:37.272Z,965.7800
2023-01-13T00:29:39.530Z,965.7200
2023-01-13T00:30:41.794Z,965.7200
2023-01-13T00:31:44.131Z,965.7000
2023-01-13T00:32:46.407Z,965.7000
2023-01-13T00:33:48.831Z,965.6600
2023-01-13T00:34:48.862Z,965.6000
2023-01-13T00:35:51.229Z,965.6400
2023-01-13T00:36:53.607Z,965.6000
2023-01-13T00:37:55.996Z,965.5200
2023-01-13T00:38:58.508Z,965.5400
2023-01-13T00:39:58.624Z,965.5600
2023-01-13T00:41:01.017Z,965.5600
2023-01-13T00:42:03.415Z,965.5600
2023-01-13T00:43:05.817Z,965.5600
2023-01-13T00:44:06.184Z,965.6000
2023-01-13T00:45:08.423Z,965.6000
2023-01-13T00:46:10.864Z,965.5600
2023-01-13T00:47:13.160Z,965.5600
2023-01-13T00:48:13.391Z,965.5600
2023-01-13T00:49:15.840Z,965.5400
2023-01-13T00:50:18.142Z,965.5800
2023-01-13T00:51:20.526Z,965.5400
2023-01-13T00:52:22.932Z,965.5000
2023-01-13T00:53:23.167Z,965.4600
2023-01-13T00:54:25.588Z,965.5400
2023-01-13T00:55:27.931Z,965.5000
2023-01-13T00:56:41.234Z,965.5200
2023-01-13T00:57:30.536Z,965.5400
2023-01-13T00:58:32.956Z,965.5400
2023-01-13T00:59:35.413Z,965.5800
2023-01-13T01:00:37.869Z,965.6000
2023-01-13T01:01:38.325Z,965.6000
2023-01-13T01:02:40.480Z,965.6400
2023-01-13T01:03:42.821Z,965.6000
2023-01-13T01:04:45.285Z,965.5200
2023-01-13T01:05:47.647Z,965.5000
2023-01-13T01:06:50.070Z,965.5200
2023-01-13T01:07:52.472Z,965.5400
2023-01-13T01:08:52.744Z,965.5000
2023-01-13T01:09:55.271Z,965.4800
2023-01-13T01:10:57.485Z,965.4600
2023-01-13T01:11:59.872Z,965.4200
2023-01-13T01:13:00.123Z,965.5000
2023-01-13T01:14:02.519Z,965.4400
2023-01-13T01:15:04.944Z,965.4200
2023-01-13T01:16:07.342Z,965.4100
2023-01-13T01:17:07.482Z,965.4400
2023-01-13T01:18:09.801Z,965.4600
2023-01-13T01:19:12.165Z,965.4600
2023-01-13T01:20:12.464Z,965.5000
2023-01-13T01:21:14.775Z,965.5400
2023-01-13T01:22:17.146Z,965.5600
2023-01-13T01:23:19.540Z,965.5800
2023-01-13T01:24:21.916Z,965.5600
2023-01-13T01:25:24.327Z,965.5600
2023-01-13T01:26:24.474Z,965.6200
2023-01-13T01:27:26.814Z,965.6400
2023-01-13T01:28:29.171Z,965.6800
2023-01-13T01:29:31.552Z,965.7200
2023-01-13T01:30:33.904Z,965.7000
2023-01-13T01:31:34.231Z,965.7200
2023-01-13T01:32:36.470Z,965.7400
2023-01-13T01:33:38.855Z,965.7800
2023-01-13T01:34:41.210Z,965.7800
2023-01-13T01:35:41.453Z,965.7400
2023-01-13T01:36:43.816Z,965.7400
2023-01-13T01:37:46.206Z,965.8000
2023-01-13T01:38:48.609Z,965.7400
2023-01-13T01:39:50.998Z,965.6600
2023-01-13T01:40:51.369Z,965.7200
2023-01-13T01:41:53.644Z,965.7200
2023-01-13T01:42:56.086Z,965.6600
2023-01-13T01:43:56.334Z,965.7000
2023-01-13T01:44:58.692Z,965.7000
2023-01-13T01:46:01.260Z,965.6600
2023-01-13T01:47:03.547Z,965.7400
2023-01-13T01:48:03.722Z,965.7800
2023-01-13T01:49:06.069Z,965.7000
2023-01-13T01:50:08.424Z,965.7000
2023-01-13T01:51:10.802Z,965.6600
2023-01-13T01:52:13.032Z,965.6400
2023-01-13T01:53:13.237Z,965.5000
2023-01-13T01:54:15.580Z,965.4400
2023-01-13T01:55:17.947Z,965.4600
2023-01-13T01:56:20.297Z,965.3900
2023-01-13T01:57:22.568Z,965.4100
2023-01-13T01:58:22.760Z,965.3700
2023-01-13T01:59:25.069Z,965.4100
2023-01-13T02:00:27.354Z,965.4200
2023-01-13T02:01:30.049Z,965.4200
2023-01-13T02:02:32.112Z,965.3900
2023-01-13T02:03:34.331Z,965.3500
2023-01-13T02:04:34.506Z,965.3900
2023-01-13T02:05:36.846Z,965.4100
2023-01-13T02:06:39.218Z,965.5000
2023-01-13T02:07:41.487Z,965.4800
2023-01-13T02:08:43.811Z,965.4200
2023-01-13T02:09:46.143Z,965.4200
2023-01-13T02:10:46.321Z,965.3700
2023-01-13T02:11:48.670Z,965.3700
2023-01-13T02:12:50.978Z,965.3900
2023-01-13T02:13:53.345Z,965.4200
2023-01-13T02:14:55.715Z,965.3900
2023-01-13T02:15:55.968Z,965.2900
2023-01-13T02:16:58.477Z,965.3100
2023-01-13T02:18:00.716Z,965.2900
2023-01-13T02:19:03.105Z,965.2700
2023-01-13T02:20:03.336Z,965.3300
2023-01-13T02:21:05.713Z,965.2900
2023-01-13T02:22:08.143Z,965.2500
2023-01-13T02:23:10.464Z,965.2700
2023-01-13T02:24:10.650Z,965.2500
2023-01-13T02:25:12.981Z,965.2700
2023-01-13T02:26:15.274Z,965.2500
2023-01-13T02:27:17.567Z,965.2100
2023-01-13T02:28:19.853Z,965.1500
2023-01-13T02:29:20.042Z,965.1900
2023-01-13T02:30:22.352Z,965.1500
2023-01-13T02:31:24.717Z,965.1700
2023-01-13T02:32:27.090Z,965.2100
2023-01-13T02:33:29.378Z,965.1900
2023-01-13T02:34:31.716Z,965.1900
2023-01-13T02:35:31.913Z,965.2300
2023-01-13T02:36:34.265Z,965.2100
2023-01-13T02:37:36.661Z,965.2500
2023-01-13T02:38:38.889Z,965.2500
2023-01-13T02:39:41.220Z,965.2900
2023-01-13T02:40:41.408Z,965.2700
2023-01-13T02:41:43.694Z,965.2500
2023-01-13T02:42:45.975Z,965.2700
2023-01-13T02:43:48.289Z,965.2500
2023-01-13T02:44:50.614Z,965.2700
2023-01-13T02:45:53.195Z,965.2300
2023-01-13T02:46:53.145Z,965.3300
2023-01-13T02:47:55.523Z,965.3100
2023-01-13T02:48:57.835Z,965.3300
2023-01-13T02:50:00.185Z,965.2900
2023-01-13T02:51:02.527Z,965.2900
2023-01-13T02:52:02.717Z,965.2900
2023-01-13T02:53:05.065Z,965.3100
2023-01-13T02:54:07.291Z,965.2500
2023-01-13T02:55:09.590Z,965.2700
2023-01-13T02:56:11.955Z,965.2700
2023-01-13T02:57:12.148Z,965.2100
2023-01-13T02:58:14.519Z,965.2900
2023-01-13T02:59:16.875Z,965.2900
2023-01-13T03:00:19.245Z,965.2500
2023-01-13T03:01:21.753Z,965.2300
2023-01-13T03:02:22.016Z,965.2100
2023-01-13T03:03:24.283Z,965.1900
2023-01-13T03:04:26.652Z,965.2500
2023-01-13T03:05:29.053Z,965.2300
2023-01-13T03:06:29.285Z,965.2100
2023-01-13T03:07:31.673Z,965.2500
2023-01-13T03:08:34.106Z,965.3300
2023-01-13T03:09:36.379Z,965.3300
2023-01-13T03:10:36.605Z,965.3300
2023-01-13T03:11:38.986Z,965.2700
2023-01-13T03:12:41.384Z,965.3100
2023-01-13T03:13:43.770Z,965.2900
2023-01-13T03:14:46.117Z,965.3100
2023-01-13T03:15:46.325Z,965.2700
2023-01-13T03:16:48.709Z,965.2900
2023-01-13T03:17:49.947Z,965.2500
2023-01-13T03:18:52.354Z,965.2300
2023-01-13T03:19:53.710Z,965.2300
2023-01-13T03:20:56.080Z,965.2100
2023-01-13T03:21:56.303Z,965.1900
2023-01-13T03:22:58.692Z,965.2100
2023-01-13T03:24:01.135Z,965.2100
2023-01-13T03:25:03.483Z,965.2100
2023-01-13T03:26:03.726Z,965.1900
2023-01-13T03:27:06.138Z,965.1700
2023-01-13T03:28:08.509Z,965.2100
2023-01-13T03:29:10.911Z,965.2300
2023-01-13T03:30:13.268Z,965.1900
2023-01-13T03:31:13.465Z,965.1500
2023-01-13T03:32:15.843Z,965.1500
2023-01-13T03:33:18.270Z,965.1500
2023-01-13T03:34:20.772Z,965.2300
2023-01-13T03:35:20.922Z,965.0700
2023-01-13T03:36:23.286Z,965.1700
2023-01-13T03:37:25.673Z,965.1100
2023-01-13T03:38:28.043Z,965.0500
2023-01-13T03:39:28.430Z,965.0300
2023-01-13T03:40:30.659Z,964.9600
2023-01-13T03:41:33.045Z,965.0500
2023-01-13T03:42:35.392Z,965.0700
2023-01-13T03:44:59.503Z,965.0200
2023-01-13T03:46:01.824Z,965.0300
2023-01-13T03:47:04.123Z,965.0200
2023-01-13T03:48:06.418Z,964.9800
2023-01-13T03:49:06.607Z,965.0200
2023-01-13T03:50:08.983Z,964.9800
2023-01-13T03:51:11.314Z,964.9800
2023-01-13T03:52:13.681Z,964.9800
2023-01-13T03:53:16.067Z,964.9800
2023-01-13T03:54:16.313Z,964.9400
2023-01-13T03:55:18.719Z,964.9400
2023-01-13T03:56:21.030Z,964.9600
2023-01-13T03:57:23.384Z,964.9000
2023-01-13T03:58:25.669Z,964.9400
2023-01-13T03:59:25.840Z,964.8800
2023-01-13T04:00:28.196Z,965.0000
2023-01-13T04:01:30.615Z,964.9600
2023-01-13T04:02:32.841Z,965.0200
2023-01-13T04:03:35.183Z,964.9600
2023-01-13T04:04:35.312Z,965.0200
2023-01-13T04:05:37.641Z,965.0300
2023-01-13T04:06:39.977Z,964.9600
2023-01-13T04:07:42.369Z,965.0200
2023-01-13T04:08:44.754Z,965.0000
2023-01-13T04:09:45.022Z,965.0500
2023-01-13T04:10:47.462Z,965.0300
2023-01-13T04:11:49.820Z,965.0300
2023-01-13T04:12:52.231Z,965.0200
2023-01-13T04:13:52.503Z,965.0200
2023-01-13T04:14:54.860Z,965.0200
2023-01-13T04:15:57.413Z,965.0000
2023-01-13T04:16:59.670Z,964.9800
2023-01-13T04:17:59.920Z,964.9400
2023-01-13T04:19:02.247Z,964.9600
2023-01-13T04:20:04.571Z,964.9200
2023-01-13T04:21:06.936Z,964.9000
2023-01-13T04:22:07.107Z,964.9400
2023-01-13T04:23:09.490Z,964.9200
2023-01-13T04:24:11.896Z,964.9400
2023-01-13T04:25:14.298Z,964.9200
2023-01-13T04:26:14.600Z,964.8800
2023-01-13T04:27:16.944Z,964.8600
2023-01-13T04:28:19.285Z,964.9200
2023-01-13T04:29:21.628Z,964.8800
2023-01-13T04:30:24.004Z,964.8200
2023-01-13T04:31:24.365Z,964.8600
2023-01-13T04:32:26.423Z,964.8400
2023-01-13T04:33:28.728Z,964.8600
2023-01-13T04:34:31.067Z,964.8400
2023-01-13T04:35:33.404Z,964.8000
2023-01-13T04:36:35.783Z,964.8400
2023-01-13T04:37:35.892Z,964.8800
2023-01-13T04:38:38.179Z,964.8000
2023-01-13T04:39:40.448Z,964.8000
2023-01-13T04:40:42.759Z,964.7600
2023-01-13T04:41:45.038Z,964.7400
2023-01-13T04:42:47.292Z,964.7200
2023-01-13T04:43:49.607Z,964.7600
2023-01-13T04:44:49.805Z,964.8000
2023-01-13T04:45:52.128Z,964.8000
2023-01-13T04:46:54.485Z,964.8200
2023-01-13T04:47:54.621Z,964.8000
2023-01-13T04:48:56.943Z,964.7600
2023-01-13T04:49:57.088Z,964.8000
2023-01-13T04:50:57.296Z,964.8000
2023-01-13T04:51:59.666Z,964.8400
2023-01-13T04:53:01.945Z,964.8000
2023-01-13T04:54:04.220Z,964.7400
2023-01-13T04:55:06.518Z,964.8200
2023-01-13T04:56:06.720Z,964.7400
2023-01-13T04:57:09.144Z,964.7600
2023-01-13T04:58:11.509Z,964.7600
2023-01-13T04:59:13.808Z,964.7000
2023-01-13T05:00:16.185Z,964.7600
2023-01-13T05:01:18.600Z,964.7600
2023-01-13T05:02:21.023Z,964.7600
2023-01-13T05:03:23.278Z,964.8400
2023-01-13T05:04:25.708Z,964.8200
2023-01-13T05:05:25.828Z,964.8400
2023-01-13T05:06:28.129Z,964.8400
2023-01-13T05:07:30.462Z,964.8600
2023-01-13T05:08:32.787Z,964.8000
2023-01-13T05:09:35.116Z,964.8200
2023-01-13T05:10:35.327Z,964.8000
2023-01-13T05:11:37.693Z,964.7200
2023-01-13T05:12:40.187Z,964.7400
2023-01-13T05:13:42.364Z,964.7400
2023-01-13T05:14:44.714Z,964.7600
2023-01-13T05:15:44.954Z,964.7800
2023-01-13T05:16:47.253Z,964.7600
2023-01-13T05:17:49.571Z,964.7400
2023-01-13T05:18:51.833Z,964.7800
2023-01-13T05:19:54.190Z,964.7400
2023-01-13T05:20:56.554Z,964.7600
2023-01-13T05:21:56.712Z,964.7600
2023-01-13T05:22:59.155Z,964.7800
2023-01-13T05:24:01.350Z,964.8000
2023-01-13T05:25:03.740Z,964.8600
2023-01-13T05:26:06.131Z,964.7600
2023-01-13T05:27:06.366Z,964.7200
2023-01-13T05:28:08.869Z,964.8200
2023-01-13T05:29:11.047Z,964.8800
2023-01-13T05:30:13.375Z,964.7800
2023-01-13T05:31:15.744Z,964.8200
2023-01-13T05:32:15.857Z,964.7400
2023-01-13T05:33:18.237Z,964.8000
2023-01-13T05:34:20.490Z,964.6800
2023-01-13T05:35:22.837Z,964.6800
2023-01-13T05:36:25.155Z,964.7000
2023-01-13T05:37:25.366Z,964.6800
2023-01-13T05:38:27.722Z,964.6400
2023-01-13T05:39:30.026Z,964.5500
2023-01-13T05:40:32.353Z,964.6200
2023-01-13T05:41:34.655Z,964.5800
2023-01-13T05:42:34.851Z,964.5600
2023-01-13T05:43:37.375Z,964.6200
2023-01-13T05:44:39.539Z,964.6000
2023-01-13T05:45:41.899Z,964.6200
2023-01-13T05:46:44.325Z,964.7000
2023-01-13T05:47:44.448Z,964.6600
2023-01-13T05:48:46.732Z,964.7000
2023-01-13T05:49:49.064Z,964.6800
2023-01-13T05:50:51.372Z,964.7400
2023-01-13T05:51:53.728Z,964.7000
2023-01-13T05:52:56.085Z,964.8200
2023-01-13T05:53:56.314Z,964.8200
2023-01-13T05:54:58.598Z,964.8400
2023-01-13T05:56:00.893Z,964.8200
2023-01-13T05:57:03.230Z,964.8400
2023-01-13T05:58:05.616Z,964.8200
2023-01-13T05:59:05.901Z,964.8000
2023-01-13T06:00:08.190Z,964.7800
2023-01-13T06:01:10.636Z,964.8200
2023-01-13T06:02:12.919Z,964.7800
2023-01-13T06:03:15.338Z,964.8600
2023-01-13T06:04:15.557Z,964.7600
2023-01-13T06:05:17.851Z,964.7000
2023-01-13T06:06:20.201Z,964.7800
2023-01-13T06:08:50.781Z,964.6600
2023-01-13T06:09:53.008Z,964.6400
2023-01-13T06:10:55.236Z,964.6400
2023-01-13T06:11:55.399Z,964.7400
2023-01-13T06:12:57.685Z,964.7800
2023-01-13T06:13:59.987Z,964.7800
2023-01-13T06:15:02.382Z,964.7600
2023-01-13T06:16:04.699Z,964.7800
2023-01-13T06:17:06.958Z,964.7400
2023-01-13T06:18:07.120Z,964.6800
2023-01-13T06:19:09.441Z,964.7000
2023-01-13T06:20:11.823Z,964.7000
2023-01-13T06:21:14.145Z,964.7400
2023-01-13T06:22:16.496Z,964.6800
2023-01-13T06:23:18.837Z,964.7600
2023-01-13T06:24:19.057Z,964.8600
2023-01-13T06:25:21.380Z,964.7400
2023-01-13T06:26:23.652Z,964.8000
2023-01-13T06:27:25.965Z,964.8000
2023-01-13T06:28:28.265Z,964.8200
2023-01-13T06:29:30.559Z,964.8400
2023-01-13T06:30:30.766Z,964.8600
2023-01-13T06:31:33.176Z,964.8600
2023-01-13T06:32:35.362Z,964.8000
2023-01-13T06:33:37.660Z,964.8000
2023-01-13T06:34:39.969Z,964.8400
2023-01-13T06:35:42.308Z,964.8200
2023-01-13T06:36:42.509Z,964.9000
2023-01-13T06:37:44.906Z,964.7800
2023-01-13T06:38:47.331Z,964.8000
2023-01-13T06:39:49.731Z,964.7800
2023-01-13T06:40:50.015Z,964.8000
2023-01-13T06:41:52.349Z,964.8200
2023-01-13T06:42:54.693Z,964.8200
2023-01-13T06:43:57.039Z,964.7600
2023-01-13T06:44:57.223Z,964.8200
2023-01-13T06:45:59.564Z,964.8400
2023-01-13T06:47:01.874Z,964.8600
2023-01-13T06:48:04.101Z,964.8400
2023-01-13T06:49:06.378Z,965.0000
2023-01-13T06:50:08.690Z,964.8200
2023-01-13T06:51:08.906Z,964.8000
2023-01-13T06:52:11.212Z,964.8000
2023-01-13T06:53:13.563Z,964.7400
2023-01-13T06:54:15.901Z,964.8000
2023-01-13T06:55:18.254Z,964.7400
2023-01-13T06:56:18.462Z,964.7200
2023-01-13T06:57:20.787Z,964.8000
2023-01-13T06:58:23.076Z,964.8600
2023-01-13T06:59:25.395Z,964.8400
2023-01-13T07:00:27.751Z,964.7200
2023-01-13T07:01:30.271Z,964.7000
2023-01-13T07:02:30.388Z,964.6200
2023-01-13T07:03:32.572Z,964.7600
2023-01-13T07:04:34.904Z,964.7000
2023-01-13T07:05:37.230Z,964.6000
2023-01-13T07:06:39.668Z,964.7000
2023-01-13T07:07:41.876Z,964.6400
2023-01-13T07:08:42.048Z,964.5000
2023-01-13T07:09:44.393Z,964.5600
2023-01-13T07:10:46.668Z,964.5500
2023-01-13T07:11:49.042Z,964.5800
2023-01-13T07:12:51.314Z,964.6800
2023-01-13T07:13:53.648Z,964.7000
2023-01-13T07:14:53.816Z,964.6800
2023-01-13T07:15:56.145Z,964.6600
2023-01-13T07:16:58.541Z,964.7000
2023-01-13T07:18:00.821Z,964.7000
2023-01-13T07:19:03.184Z,964.7200
2023-01-13T07:20:04.387Z,964.8000
2023-01-13T07:21:07.871Z,964.6600
2023-01-13T07:22:11.254Z,964.7000
2023-01-13T07:24:12.733Z,964.7000
2023-01-13T07:25:15.132Z,964.5600
2023-01-13T07:26:15.422Z,964.6200
2023-01-13T07:27:17.864Z,964.6400
2023-01-13T07:28:20.267Z,964.6600
2023-01-13T07:29:22.656Z,964.5600
2023-01-13T07:30:22.904Z,964.6000
2023-01-13T07:31:25.455Z,964.6200
2023-01-13T07:32:27.752Z,964.6000
2023-01-13T07:33:30.090Z,964.5600
2023-01-13T07:34:30.296Z,964.6200
2023-01-13T07:35:32.638Z,964.6200
2023-01-13T07:36:35.051Z,964.7000
2023-01-13T07:37:37.432Z,964.6200
2023-01-13T07:38:39.823Z,964.7400
2023-01-13T07:39:40.039Z,964.6600
2023-01-13T07:40:42.439Z,964.6200
2023-01-13T07:41:44.827Z,964.5600
2023-01-13T07:42:47.222Z,964.5500
2023-01-13T07:43:47.424Z,964.6400
2023-01-13T07:44:49.818Z,964.6600
2023-01-13T07:45:52.328Z,964.6000
2023-01-13T07:46:54.606Z,964.6200
2023-01-13T07:47:54.922Z,964.6200
2023-01-13T07:48:57.235Z,964.6600
2023-01-13T07:49:59.595Z,964.6400
2023-01-13T07:51:01.945Z,964.6400
2023-01-13T07:52:02.147Z,964.6600
2023-01-13T07:53:04.468Z,964.6200
2023-01-13T07:54:04.636Z,964.6400
2023-01-13T07:55:06.969Z,964.6000
2023-01-13T07:56:09.298Z,964.6600
2023-01-13T07:57:11.640Z,964.6600
2023-01-13T07:58:11.863Z,964.8200
2023-01-13T07:59:14.175Z,964.8400
2023-01-13T08:00:16.528Z,964.7200
2023-01-13T08:01:19.042Z,964.8200
2023-01-13T08:02:21.492Z,964.8600
2023-01-13T08:03:21.479Z,964.8400
2023-01-13T08:04:23.760Z,964.8600
2023-01-13T08:06:13.505Z,964.9400
2023-01-13T08:07:15.786Z,964.8600
2023-01-13T08:08:18.118Z,964.8200
2023-01-13T08:09:20.454Z,964.9600
2023-01-13T08:10:20.621Z,964.8400
2023-01-13T08:11:23.733Z,964.8800
2023-01-13T08:12:25.223Z,964.8000
2023-01-13T08:13:27.564Z,964.8200
2023-01-13T08:14:30.035Z,964.8000
2023-01-13T08:15:32.207Z,964.9400
2023-01-13T08:16:32.358Z,964.9600
2023-01-13T08:17:34.648Z,964.9600
2023-01-13T08:18:37.012Z,964.9600
2023-01-13T08:19:39.434Z,964.9400
2023-01-13T08:20:41.629Z,964.9200
2023-01-13T08:21:43.982Z,964.8600
2023-01-13T08:22:44.230Z,964.8600
2023-01-13T08:23:46.538Z,964.9000
2023-01-13T08:24:48.956Z,964.9000
2023-01-13T08:25:51.282Z,964.8800
2023-01-13T08:26:53.640Z,964.9400
2023-01-13T08:27:53.897Z,964.9200
2023-01-13T08:28:56.307Z,964.9600
2023-01-13T08:29:58.752Z,965.1300
2023-01-13T08:30:59.024Z,965.0900
2023-01-13T08:32:01.362Z,965.1300
2023-01-13T08:33:03.749Z,965.0900
2023-01-13T08:34:06.181Z,965.1500
2023-01-13T08:35:08.606Z,965.0700
2023-01-13T08:36:08.846Z,965.1700
2023-01-13T08:37:11.277Z,965.1300
2023-01-13T08:38:13.723Z,965.1500
2023-01-13T08:39:13.992Z,965.1100
2023-01-13T08:40:16.475Z,965.0900
2023-01-13T08:41:18.851Z,965.0900
2023-01-13T08:42:21.321Z,965.0500
2023-01-13T08:43:58.129Z,965.0700
2023-01-13T08:44:58.291Z,965.0700
2023-01-13T08:46:00.810Z,965.0700
2023-01-13T08:47:02.998Z,965.1700
2023-01-13T08:48:05.371Z,965.1300
2023-01-13T08:49:07.754Z,965.1700
2023-01-13T08:50:08.009Z,965.1100
2023-01-13T08:51:10.477Z,965.1900
2023-01-13T08:52:12.807Z,965.1900
2023-01-13T08:53:15.238Z,965.2300
2023-01-13T08:54:15.481Z,965.1500
2023-01-13T08:55:17.911Z,965.1700
2023-01-13T08:56:20.379Z,965.1900
2023-01-13T08:57:20.567Z,965.2100
2023-01-13T08:58:22.924Z,965.2500
2023-01-13T08:59:25.360Z,965.2300
2023-01-13T09:00:27.735Z,965.1900
2023-01-13T09:01:28.182Z,965.1700
2023-01-13T09:02:30.494Z,965.0900
2023-01-13T09:03:32.841Z,965.1100
2023-01-13T09:04:35.362Z,965.2100
2023-01-13T09:05:35.541Z,965.1900
2023-01-13T09:06:37.844Z,965.2300
2023-01-13T09:07:40.187Z,965.1700
2023-01-13T09:08:42.550Z,965.1100
2023-01-13T09:09:44.908Z,965.2500
2023-01-13T09:10:45.109Z,965.2500
2023-01-13T09:11:47.482Z,965.3100
2023-01-13T09:12:49.796Z,965.2900
2023-01-13T09:13:52.120Z,965.3300
2023-01-13T09:14:54.369Z,965.3900
2023-01-13T09:15:54.555Z,965.4100
2023-01-13T09:16:56.788Z,965.3500
2023-01-13T09:17:59.105Z,965.3700
2023-01-13T09:19:01.406Z,965.3700
2023-01-13T09:20:03.714Z,965.3700
2023-01-13T09:21:06.105Z,965.3700
2023-01-13T09:22:06.194Z,965.3300
2023-01-13T09:23:10.526Z,965.2700
2023-01-13T09:24:10.791Z,965.2100
2023-01-13T09:25:13.118Z,965.3300
2023-01-13T09:26:15.467Z,965.3300
2023-01-13T09:27:17.925Z,965.4100
2023-01-13T09:28:17.980Z,965.3700
2023-01-13T09:29:20.325Z,965.3300
2023-01-13T09:30:22.703Z,965.3500
2023-01-13T09:31:25.137Z,965.3700
2023-01-13T09:32:25.342Z,965.3900
2023-01-13T09:33:27.646Z,965.3100
2023-01-13T09:34:30.025Z,965.4400
2023-01-13T09:35:32.382Z,965.3300
2023-01-13T09:36:34.806Z,965.3700
2023-01-13T09:37:35.085Z,965.3500
2023-01-13T09:38:37.301Z,965.4100
2023-01-13T09:39:39.575Z,965.4400
2023-01-13T09:40:41.843Z,965.5000
2023-01-13T09:41:44.103Z,965.5000
2023-01-13T09:42:46.390Z,965.4800
2023-01-13T09:43:48.623Z,965.5200
2023-01-13T09:44:48.766Z,965.5200
2023-01-13T09:45:51.023Z,965.4600
2023-01-13T09:46:53.269Z,965.5600
2023-01-13T09:47:55.534Z,965.5600
2023-01-13T09:48:57.802Z,965.5200
2023-01-13T09:50:00.091Z,965.5400
2023-01-13T09:51:02.453Z,965.5400
2023-01-13T09:53:20.337Z,965.6800
2023-01-13T09:54:22.366Z,965.6200
2023-01-13T09:55:24.653Z,965.6400
2023-01-13T09:56:26.908Z,965.6600
2023-01-13T09:57:29.274Z,965.6800
2023-01-13T09:58:31.601Z,965.6400
2023-01-13T09:59:33.946Z,965.6000
2023-01-13T10:00:34.140Z,965.6600
2023-01-13T10:01:36.452Z,965.6800
2023-01-13T10:02:38.788Z,965.7000
2023-01-13T10:03:41.249Z,965.6800
2023-01-13T10:04:43.427Z,965.6600
2023-01-13T10:05:43.587Z,965.6200
2023-01-13T10:06:45.874Z,965.6600
2023-01-13T10:07:49.425Z,965.6000
2023-01-13T10:08:50.648Z,965.6400
2023-01-13T10:09:52.925Z,965.5800
2023-01-13T10:10:53.138Z,965.6800
2023-01-13T10:11:55.513Z,965.7200
2023-01-13T10:12:57.834Z,965.6400
2023-01-13T10:14:00.237Z,965.7200
2023-01-13T10:15:02.567Z,965.5600
2023-01-13T10:16:03.266Z,965.7600
2023-01-13T10:17:05.151Z,965.6600
2023-01-13T10:18:07.506Z,965.7200
2023-01-13T10:19:09.862Z,965.7000
2023-01-13T10:20:10.055Z,965.8200
2023-01-13T10:21:10.249Z,965.8000
2023-01-13T10:22:12.609Z,965.7800
2023-01-13T10:23:14.964Z,965.8200
2023-01-13T10:24:17.357Z,965.8200
2023-01-13T10:25:17.515Z,965.6600
2023-01-13T10:26:19.887Z,965.8000
2023-01-13T10:27:22.190Z,965.8900
2023-01-13T10:28:24.536Z,965.8200
2023-01-13T10:29:26.878Z,965.8600
2023-01-13T10:30:29.237Z,965.9100
2023-01-13T10:31:31.594Z,965.9900
2023-01-13T10:32:33.911Z,965.9900
2023-01-13T10:33:36.277Z,965.9900
2023-01-13T10:34:38.663Z,965.9700
2023-01-13T10:35:38.846Z,965.9500
2023-01-13T10:36:41.232Z,966.0300
2023-01-13T10:37:43.586Z,966.1100
2023-01-13T10:38:45.866Z,966.0300
2023-01-13T10:39:48.227Z,966.0300
2023-01-13T10:40:48.321Z,966.0500
2023-01-13T10:41:50.611Z,966.0700
2023-01-13T10:42:52.970Z,966.0100
2023-01-13T10:43:55.315Z,966.0700
2023-01-13T10:44:57.704Z,966.1900
2023-01-13T10:46:00.006Z,966.1700
2023-01-13T10:47:00.212Z,966.1700
2023-01-13T10:48:02.566Z,966.1700
2023-01-13T10:49:04.873Z,966.1100
2023-01-13T10:50:09.474Z,966.2300
2023-01-13T10:51:09.349Z,966.1300
2023-01-13T10:52:11.667Z,966.1500
2023-01-13T10:53:13.832Z,966.1700
2023-01-13T10:54:13.966Z,966.1500
2023-01-13T10:55:16.299Z,966.0900
2023-01-13T10:56:18.512Z,966.1300
2023-01-13T10:57:20.775Z,966.1700
2023-01-13T10:58:23.036Z,966.1100
2023-01-13T10:59:25.324Z,966.0100
2023-01-13T11:00:27.650Z,966.0900
2023-01-13T11:01:30.001Z,966.0900
2023-01-13T11:02:30.333Z,966.1100
2023-01-13T11:04:21.989Z,966.1700
2023-01-13T11:05:24.169Z,966.1700
2023-01-13T11:06:24.357Z,966.1700
2023-01-13T11:07:28.332Z,966.2100
2023-01-13T11:08:29.047Z,966.2300
2023-01-13T11:09:31.374Z,966.2700
2023-01-13T11:10:33.797Z,966.2300
2023-01-13T11:11:34.025Z,966.2900
2023-01-13T11:12:36.367Z,966.3300
2023-01-13T11:13:38.743Z,966.2900
2023-01-13T11:14:41.127Z,966.3600
2023-01-13T11:15:41.358Z,966.4200
2023-01-13T11:16:52.980Z,966.3100
2023-01-13T11:17:46.039Z,966.4000
2023-01-13T11:18:48.385Z,966.4200
2023-01-13T11:19:50.717Z,966.3300
2023-01-13T11:20:50.904Z,966.3800
2023-01-13T11:21:53.286Z,966.3600
2023-01-13T11:22:55.533Z,966.4400
2023-01-13T11:23:57.805Z,966.4400
2023-01-13T11:25:00.141Z,966.3600
2023-01-13T11:26:02.515Z,966.3300
2023-01-13T11:27:02.683Z,966.3300
2023-01-13T11:28:04.993Z,966.3100
2023-01-13T11:29:07.324Z,966.4000
2023-01-13T11:30:09.686Z,966.3100
2023-01-13T11:31:12.037Z,966.3500
2023-01-13T11:32:14.356Z,966.2900
2023-01-13T11:33:14.520Z,966.4200
2023-01-13T11:34:16.885Z,966.5600
2023-01-13T11:35:19.245Z,966.4400
2023-01-13T11:36:21.604Z,966.4400
2023-01-13T11:37:23.928Z,966.1900
2023-01-13T11:38:24.045Z,966.1700
2023-01-13T11:39:26.365Z,966.1500
2023-01-13T11:40:28.706Z,966.2100
2023-01-13T11:41:31.022Z,966.0100
2023-01-13T11:42:35.877Z,965.8900
2023-01-13T11:43:33.578Z,965.9900
2023-01-13T11:44:35.912Z,965.8400
2023-01-13T11:45:38.216Z,965.8400
2023-01-13T11:46:40.630Z,965.9700
2023-01-13T11:47:42.927Z,965.9100
2023-01-13T11:48:43.106Z,965.9300
2023-01-13T11:49:45.360Z,965.9100
2023-01-13T11:50:47.666Z,965.8800
2023-01-13T11:51:49.972Z,965.8800
2023-01-13T11:52:52.270Z,965.9100
2023-01-13T11:53:54.546Z,965.9300
2023-01-13T11:54:56.844Z,965.9700
2023-01-13T11:55:57.040Z,965.8600
2023-01-13T11:56:59.436Z,965.9300
2023-01-13T11:58:01.749Z,965.9300
2023-01-13T11:59:04.081Z,965.9500
2023-01-13T12:00:06.441Z,965.8900
2023-01-13T12:01:06.719Z,966.0700
2023-01-13T12:02:09.236Z,966.0500
2023-01-13T12:03:11.417Z,966.0100
2023-01-13T12:04:13.719Z,966.0300
2023-01-13T12:05:16.111Z,966.0700
2023-01-13T12:06:18.430Z,966.1500
2023-01-13T12:07:22.996Z,966.1700
2023-01-13T12:08:23.124Z,966.0700
2023-01-13T12:09:25.413Z,966.1300
2023-01-13T12:10:27.701Z,966.1700
2023-01-13T12:11:27.853Z,966.0900
2023-01-13T12:12:30.170Z,966.1300
2023-01-13T12:13:32.441Z,965.9900
2023-01-13T12:14:32.598Z,965.9900
2023-01-13T12:15:34.996Z,965.8900